Time;durP1;ratioP1;P1;durP2;ratioP2;P2;SDS_P1;SDS_P2;PMS_P1;PMS_P2;Temp;Humidity;BMP_temperature;BMP_pressure;BME280_temperature;BME280_humidity;BME280_pressure;Samples;Min_cycle;Max_cycle;Signal;HPM_P1;HPM_P2
2021/09/05 00:02:11;;;;;;;11.63;10.50;;;;;;;15.12;90.14;98799.59;4979029;28;104031;-68
2021/09/05 00:04:39;;;;;;;14.57;13.20;;;;;;;14.96;90.99;98793.97;4998869;28;102798;-67
2021/09/05 00:07:09;;;;;;;17.63;15.90;;;;;;;14.25;96.65;98790.44;4997302;28;102739;-59
2021/09/05 00:09:37;;;;;;;16.38;14.77;;;;;;;14.01;99.68;98797.81;4997026;28;103947;-59
2021/09/05 00:12:08;;;;;;;15.57;13.93;;;;;;;14.21;99.75;98798.78;4999536;28;103217;-59
2021/09/05 00:14:36;;;;;;;10.87;9.77;;;;;;;14.47;98.03;98795.59;4998515;28;102559;-59
2021/09/05 00:17:05;;;;;;;13.27;11.87;;;;;;;14.48;96.57;98791.94;4996643;28;104083;-59
2021/09/05 00:19:33;;;;;;;11.30;10.30;;;;;;;14.56;97.38;98793.97;4994638;28;103296;-60
2021/09/05 00:22:01;;;;;;;14.67;12.53;;;;;;;14.48;96.80;98786.63;4998632;28;103037;-65
2021/09/05 00:24:30;;;;;;;11.70;10.50;;;;;;;14.58;96.71;98792.00;4999696;28;102620;-59
2021/09/05 00:26:58;;;;;;;11.47;10.33;;;;;;;14.73;94.30;98782.69;4999371;28;104030;-59
2021/09/05 00:29:27;;;;;;;9.53;8.63;;;;;;;14.78;93.82;98779.63;4976049;28;103266;-60
2021/09/05 00:31:56;;;;;;;11.10;10.00;;;;;;;14.81;94.09;98782.88;4996694;28;103217;-59
2021/09/05 00:34:24;;;;;;;13.00;11.27;;;;;;;14.85;92.40;98780.78;4998071;28;102515;-59
2021/09/05 00:36:54;;;;;;;14.90;11.93;;;;;;;14.58;95.84;98791.16;4999737;28;103175;-60
2021/09/05 00:39:23;;;;;;;13.33;11.90;;;;;;;14.50;97.85;98783.88;4999271;28;104567;-68
2021/09/05 00:41:51;;;;;;;17.07;12.67;;;;;;;14.55;96.59;98786.09;4979048;28;103084;-67
2021/09/05 00:44:19;;;;;;;14.93;13.00;;;;;;;14.24;99.10;98794.03;4981612;28;102649;-69
2021/09/05 00:46:49;;;;;;;12.87;10.67;;;;;;;14.28;99.22;98784.00;4976425;28;102778;-69
2021/09/05 00:49:17;;;;;;;12.93;11.67;;;;;;;14.36;98.23;98782.41;4980326;28;103713;-69
2021/09/05 00:51:46;;;;;;;10.90;9.90;;;;;;;14.46;97.38;98780.63;4980745;28;104185;-69
2021/09/05 00:54:18;;;;;;;13.10;11.73;;;;;;;14.43;97.11;98785.34;4973126;28;103066;-60
2021/09/05 00:56:46;;;;;;;13.57;12.13;;;;;;;14.37;98.19;98784.06;4999610;28;102610;-59
2021/09/05 00:59:20;;;;;;;11.30;9.73;;;;;;;14.45;97.94;98792.25;4998422;28;104313;-60
2021/09/05 01:01:50;;;;;;;9.07;8.27;;;;;;;14.57;95.96;98790.31;4971871;28;103258;-60
2021/09/05 01:04:19;;;;;;;11.13;9.97;;;;;;;14.42;97.61;98792.50;4976407;28;102834;-60
2021/09/05 01:06:51;;;;;;;11.10;10.00;;;;;;;14.35;98.96;98794.00;4995525;28;102731;-59
2021/09/05 01:09:21;;;;;;;9.60;8.63;;;;;;;14.50;98.03;98789.19;4996852;28;103897;-59
2021/09/05 01:11:50;;;;;;;11.87;10.67;;;;;;;14.49;96.51;98798.97;4976989;28;103182;-59
2021/09/05 01:14:19;;;;;;;15.37;12.30;;;;;;;14.12;100.00;98795.09;4981787;28;102646;-67
2021/09/05 01:16:49;;;;;;;16.77;12.97;;;;;;;13.87;100.00;98800.78;4979026;28;104063;-68
2021/09/05 01:19:47;;;;;;;13.30;12.00;;;;;;;13.97;100.00;98793.75;4960072;28;103869;-67
2021/09/05 01:22:34;;;;;;;13.10;11.17;;;;;;;14.14;100.00;98797.63;4997350;28;103292;-59
2021/09/05 01:25:31;;;;;;;10.30;9.30;;;;;;;14.19;98.97;98806.03;4924703;28;102878;-69
2021/09/05 01:28:19;;;;;;;11.83;10.67;;;;;;;14.26;97.63;98786.78;4993302;28;102703;-60
2021/09/05 01:31:05;;;;;;;8.27;7.47;;;;;;;14.38;95.71;98796.41;4994576;28;103222;-68
2021/09/05 01:33:51;;;;;;;10.60;9.60;;;;;;;14.38;94.82;98791.06;4996422;28;103086;-69
2021/09/05 01:36:50;;;;;;;15.50;12.10;;;;;;;13.84;98.70;98796.56;4984922;28;102894;-60
2021/09/05 01:39:38;;;;;;;11.23;10.23;;;;;;;13.80;100.00;98807.59;4994097;28;103075;-60
2021/09/05 01:42:24;;;;;;;12.97;11.67;;;;;;;13.62;100.00;98807.31;4995514;28;103030;-60
2021/09/05 01:45:07;;;;;;;13.63;12.33;;;;;;;13.65;100.00;98806.22;4972396;28;103656;-60
2021/09/05 01:47:55;;;;;;;13.13;11.73;;;;;;;13.70;100.00;98810.16;5000119;28;102665;-59
2021/09/05 01:50:56;;;;;;;12.57;11.37;;;;;;;13.73;100.00;98819.69;4972154;28;102989;-69
2021/09/05 01:53:46;;;;;;;12.27;10.97;;;;;;;13.58;100.00;98815.66;4981420;28;104082;-67
2021/09/05 01:56:35;;;;;;;11.27;9.70;;;;;;;13.82;100.00;98814.47;5002006;28;103199;-60
2021/09/05 01:59:29;;;;;;;8.80;7.47;;;;;;;14.09;99.50;98811.28;4977951;28;102715;-69
2021/09/05 02:02:31;;;;;;;8.03;7.23;;;;;;;14.22;96.51;98809.28;4955901;28;102648;-60
2021/09/05 02:05:18;;;;;;;10.30;9.33;;;;;;;14.20;94.06;98821.88;4999592;28;103220;-60
2021/09/05 02:08:05;;;;;;;12.53;11.33;;;;;;;13.92;95.36;98818.03;5001931;28;103182;-61
2021/09/05 02:11:02;;;;;;;12.70;11.40;;;;;;;13.82;97.14;98818.94;4935825;28;102736;-68
2021/09/05 02:13:46;;;;;;;9.90;8.90;;;;;;;13.97;97.36;98838.91;4973241;28;102807;-61
2021/09/05 02:16:32;;;;;;;9.80;8.90;;;;;;;14.07;95.29;98829.16;4995509;28;103178;-59
2021/09/05 02:19:28;;;;;;;10.93;9.83;;;;;;;14.00;96.04;98832.50;4975859;28;103301;-59
2021/09/05 02:22:22;;;;;;;12.50;11.17;;;;;;;13.68;97.54;98832.50;4972609;28;102861;-59
2021/09/05 02:25:07;;;;;;;9.27;8.37;;;;;;;13.82;97.25;98832.19;4978460;28;102993;-59
2021/09/05 02:27:56;;;;;;;10.83;9.80;;;;;;;13.90;94.87;98838.56;4969932;28;103181;-59
2021/09/05 02:30:47;;;;;;;10.73;9.33;;;;;;;14.00;93.97;98843.09;4996709;28;103258;-60
2021/09/05 02:33:43;;;;;;;8.33;7.47;;;;;;;14.04;93.50;98836.56;4990996;28;102728;-58
2021/09/05 02:36:37;;;;;;;11.10;10.10;;;;;;;13.97;93.79;98840.72;4978589;28;102723;-58
2021/09/05 02:39:41;;;;;;;11.10;10.00;;;;;;;13.89;94.30;98846.66;4931651;28;103257;-58
2021/09/05 02:42:35;;;;;;;11.80;10.53;;;;;;;13.56;98.18;98846.81;4980277;28;103295;-59
2021/09/05 02:45:23;;;;;;;12.43;11.17;;;;;;;13.45;100.00;98852.13;4971442;28;102711;-59
2021/09/05 02:48:10;;;;;;;8.27;7.50;;;;;;;13.62;99.49;98860.41;4997571;28;102726;-59
2021/09/05 02:50:56;;;;;;;8.60;7.80;;;;;;;13.74;97.42;98847.94;4997085;28;103229;-59
2021/09/05 02:53:44;;;;;;;8.00;7.23;;;;;;;13.71;97.57;98850.84;4997263;28;103221;-59
2021/09/05 02:56:30;;;;;;;10.23;8.73;;;;;;;13.61;98.62;98849.91;5001237;28;102752;-68
2021/09/05 02:59:07;;;;;;;10.67;9.53;;;;;;;13.35;100.00;98847.59;5001081;28;102828;-67
2021/09/05 03:01:54;;;;;;;10.13;9.07;;;;;;;13.46;100.00;98853.81;5001108;28;103248;-67
2021/09/05 03:04:28;;;;;;;12.57;11.30;;;;;;;13.22;100.00;98840.75;4999437;28;103208;-67
2021/09/05 03:07:34;;;;;;;12.27;10.97;;;;;;;13.07;100.00;98845.47;4949101;28;102960;-59
2021/09/05 03:10:22;;;;;;;10.73;9.40;;;;;;;13.13;100.00;98842.34;4948188;28;103970;-67
2021/09/05 03:13:10;;;;;;;9.87;8.73;;;;;;;13.25;100.00;98846.63;4975618;28;104136;-69
2021/09/05 03:16:09;;;;;;;7.90;7.10;;;;;;;13.47;100.00;98844.91;4982879;28;105307;-59
2021/09/05 03:18:59;;;;;;;11.17;10.03;;;;;;;13.33;98.80;98849.50;4974203;28;103004;-60
2021/09/05 03:21:50;;;;;;;12.50;11.20;;;;;;;13.21;99.04;98845.22;4978234;28;102676;-60
2021/09/05 03:24:37;;;;;;;12.83;11.40;;;;;;;12.83;100.00;98850.03;4999983;28;104021;-60
2021/09/05 03:27:32;;;;;;;13.43;12.23;;;;;;;12.94;100.00;98852.66;4959886;28;103264;-60
2021/09/05 03:30:23;;;;;;;13.63;11.83;;;;;;;13.04;100.00;98847.47;4996239;28;103375;-67
2021/09/05 03:33:09;;;;;;;14.83;11.53;;;;;;;13.11;100.00;98844.25;5000384;28;103992;-66
2021/09/05 03:36:00;;;;;;;8.33;7.53;;;;;;;13.30;100.00;98851.59;4986565;28;103325;-67
2021/09/05 03:38:51;;;;;;;9.03;8.20;;;;;;;13.47;100.00;98861.69;4989383;28;102934;-67
2021/09/05 03:41:40;;;;;;;7.20;6.50;;;;;;;13.58;99.05;98858.13;4999508;28;102673;-66
2021/09/05 03:44:12;;;;;;;6.77;6.17;;;;;;;13.67;96.90;98860.03;4997109;28;102850;-60
2021/09/05 03:47:00;;;;;;;7.17;6.40;;;;;;;13.72;94.88;98865.81;4998627;28;103166;-59
2021/09/05 03:50:00;;;;;;;11.20;10.10;;;;;;;13.54;93.42;98856.69;4979004;28;103198;-67
2021/09/05 03:52:29;;;;;;;11.20;10.10;;;;;;;12.95;98.72;98862.31;4977197;28;102631;-67
2021/09/05 03:55:01;;;;;;;9.67;8.70;;;;;;;13.07;99.24;98861.38;4978441;28;103923;-60
2021/09/05 03:57:30;;;;;;;8.20;7.50;;;;;;;13.19;98.72;98857.72;4979258;28;103050;-59
2021/09/05 04:00:00;;;;;;;7.97;7.17;;;;;;;13.11;100.00;98860.16;4980937;28;103027;-68
2021/09/05 04:02:30;;;;;;;8.47;7.63;;;;;;;13.17;98.96;98857.03;4997440;28;102930;-60
2021/09/05 04:04:58;;;;;;;9.50;8.57;;;;;;;13.20;99.23;98854.13;4979476;28;103964;-68
2021/09/05 04:07:26;;;;;;;12.33;11.17;;;;;;;12.79;100.00;98859.19;4997222;28;103288;-67
2021/09/05 04:10:09;;;;;;;15.20;11.07;;;;;;;12.76;100.00;98854.13;4998127;28;103190;-69
2021/09/05 04:12:39;;;;;;;11.93;10.73;;;;;;;13.12;100.00;98866.31;4999504;28;102731;-69
2021/09/05 04:15:10;;;;;;;7.93;7.23;;;;;;;13.09;100.00;98862.09;4997387;28;102637;-68
2021/09/05 04:17:39;;;;;;;12.40;11.30;;;;;;;12.79;100.00;98857.41;4995788;28;103080;-68
2021/09/05 04:20:07;;;;;;;12.70;11.30;;;;;;;12.79;100.00;98853.91;4995611;28;103216;-68
2021/09/05 04:22:35;;;;;;;13.03;11.73;;;;;;;12.74;100.00;98862.19;4998797;28;103314;-68
2021/09/05 04:25:04;;;;;;;14.27;12.87;;;;;;;12.65;100.00;98855.00;4981159;28;103239;-68
2021/09/05 04:27:33;;;;;;;14.80;13.30;;;;;;;12.58;100.00;98859.06;4999408;28;104102;-68
2021/09/05 04:30:00;;;;;;;10.77;9.77;;;;;;;12.76;100.00;98862.09;4996980;28;103222;-69
2021/09/05 04:32:30;;;;;;;13.00;11.73;;;;;;;12.74;100.00;98872.78;4998610;28;102623;-62
2021/09/05 04:34:58;;;;;;;13.67;12.20;;;;;;;12.61;100.00;98871.22;4998948;28;104455;-59
2021/09/05 04:37:26;;;;;;;13.67;12.27;;;;;;;12.61;100.00;98876.53;4992625;28;103344;-67
2021/09/05 04:39:54;;;;;;;14.00;12.43;;;;;;;12.47;100.00;98879.41;4982000;28;103309;-58
2021/09/05 04:42:23;;;;;;;12.83;11.53;;;;;;;12.36;100.00;98882.03;4999416;28;103102;-67
2021/09/05 04:44:53;;;;;;;14.77;12.63;;;;;;;11.98;100.00;98891.09;4977983;28;104270;-67
2021/09/05 04:47:21;;;;;;;15.43;13.73;;;;;;;11.90;100.00;98896.09;4998536;28;103299;-67
2021/09/05 04:49:50;;;;;;;14.10;12.60;;;;;;;11.99;100.00;98895.41;4999533;28;103235;-67
2021/09/05 04:52:18;;;;;;;14.93;13.30;;;;;;;12.06;100.00;98891.38;4994565;28;102698;-68
2021/09/05 04:54:46;;;;;;;11.63;10.53;;;;;;;12.32;100.00;98893.84;4979853;28;102655;-60
2021/09/05 04:57:14;;;;;;;7.50;6.90;;;;;;;12.60;100.00;98899.53;4997472;28;103856;-60
2021/09/05 04:59:42;;;;;;;7.13;6.43;;;;;;;12.80;100.00;98897.97;4999213;28;103267;-60
2021/09/05 05:02:10;;;;;;;9.00;7.70;;;;;;;12.92;100.00;98894.38;4996841;28;102650;-60
2021/09/05 05:04:39;;;;;;;11.63;9.77;;;;;;;12.78;100.00;98906.06;4998938;28;104019;-59
2021/09/05 05:07:09;;;;;;;11.60;10.50;;;;;;;12.69;100.00;98909.44;4998541;28;103305;-59
2021/09/05 05:09:43;;;;;;;9.10;8.20;;;;;;;12.84;100.00;98911.84;4997147;28;103250;-67
2021/09/05 05:12:12;;;;;;;9.60;8.40;;;;;;;12.88;100.00;98918.63;5000983;28;102700;-60
2021/09/05 05:14:40;;;;;;;11.60;10.50;;;;;;;12.89;100.00;98923.78;4999181;28;102714;-68
2021/09/05 05:17:08;;;;;;;12.80;11.50;;;;;;;12.89;100.00;98922.94;4995006;28;103308;-60
2021/09/05 05:19:36;;;;;;;12.80;11.50;;;;;;;12.86;100.00;98925.81;4997389;28;103338;-68
2021/09/05 05:22:05;;;;;;;10.63;9.57;;;;;;;12.88;100.00;98927.44;5000441;28;102798;-69
2021/09/05 05:24:34;;;;;;;9.80;8.80;;;;;;;13.06;100.00;98925.97;4998406;28;102861;-61
2021/09/05 05:27:02;;;;;;;8.47;7.57;;;;;;;13.29;100.00;98935.63;5003205;28;103353;-68
2021/09/05 05:29:30;;;;;;;8.07;7.27;;;;;;;13.40;100.00;98928.63;5001024;28;103240;-67
2021/09/05 05:31:58;;;;;;;10.03;9.03;;;;;;;13.49;100.00;98939.34;5001220;28;103111;-59
2021/09/05 05:34:26;;;;;;;8.00;7.20;;;;;;;13.67;100.00;98932.53;5001127;28;102649;-59
2021/09/05 05:36:54;;;;;;;6.97;6.30;;;;;;;13.83;99.69;98935.66;5002152;28;103968;-59
2021/09/05 05:39:22;;;;;;;12.10;9.70;;;;;;;13.92;98.64;98939.38;5000327;28;103206;-58
2021/09/05 05:41:51;;;;;;;8.67;7.87;;;;;;;13.87;100.00;98938.88;4998811;28;102597;-59
2021/09/05 05:44:19;;;;;;;7.57;6.87;;;;;;;14.01;100.00;98941.25;4999029;28;102874;-58
2021/09/05 05:46:47;;;;;;;7.63;7.00;;;;;;;14.12;99.62;98938.53;4988343;28;104087;-59
2021/09/05 05:49:15;;;;;;;7.37;6.70;;;;;;;14.24;98.60;98945.50;4960999;28;104527;-58
2021/09/05 05:51:43;;;;;;;6.37;5.77;;;;;;;14.36;96.63;98938.38;4992486;28;103079;-58
2021/09/05 05:54:14;;;;;;;8.10;7.30;;;;;;;14.25;98.02;98939.25;4991828;28;102970;-58
2021/09/05 05:56:43;;;;;;;7.60;6.87;;;;;;;14.40;97.39;98942.44;4994860;28;103449;-65
2021/09/05 05:59:13;;;;;;;8.43;7.40;;;;;;;14.56;96.67;98939.34;4995610;28;103220;-66
2021/09/05 06:01:42;;;;;;;7.20;6.50;;;;;;;14.67;96.68;98941.94;4992384;28;102986;-65
2021/09/05 06:04:10;;;;;;;8.03;7.03;;;;;;;14.80;95.40;98945.22;4971827;28;102891;-58
2021/09/05 06:06:40;;;;;;;7.43;6.73;;;;;;;14.93;94.72;98946.69;4971679;28;103457;-66
2021/09/05 06:09:08;;;;;;;7.50;6.80;;;;;;;15.05;93.91;98945.63;4992925;28;103188;-58
2021/09/05 06:11:36;;;;;;;7.00;6.37;;;;;;;15.18;92.82;98944.59;4971086;28;104067;-61
2021/09/05 06:14:04;;;;;;;10.60;9.60;;;;;;;15.14;92.81;98943.16;4995847;28;103121;-58
2021/09/05 06:16:34;;;;;;;11.13;10.03;;;;;;;14.99;94.64;98956.81;4993804;28;103864;-58
2021/09/05 06:19:02;;;;;;;9.10;8.23;;;;;;;15.19;94.57;98947.09;4976853;28;102973;-59
2021/09/05 06:21:30;;;;;;;9.40;8.50;;;;;;;15.44;93.00;98941.31;4995709;28;102683;-58
2021/09/05 06:23:59;;;;;;;10.27;8.20;;;;;;;15.44;93.46;98946.63;4985432;28;102974;-59
2021/09/05 06:26:27;;;;;;;8.10;7.40;;;;;;;15.64;92.24;98952.88;5008659;28;103288;-67
2021/09/05 06:28:55;;;;;;;8.87;7.97;;;;;;;15.75;91.70;98944.78;5009218;28;103185;-67
2021/09/05 06:31:23;;;;;;;10.57;8.83;;;;;;;15.88;91.19;98953.38;5001774;28;102620;-67
2021/09/05 06:33:53;;;;;;;11.47;9.50;;;;;;;15.90;91.28;98951.41;4997325;28;102700;-59
2021/09/05 06:36:21;;;;;;;8.30;7.37;;;;;;;16.07;90.76;98955.22;5000554;28;103291;-59
2021/09/05 06:38:49;;;;;;;9.27;7.83;;;;;;;16.20;90.26;98958.44;4999679;28;103210;-59
2021/09/05 06:41:17;;;;;;;8.00;7.30;;;;;;;16.40;89.59;98957.47;4998947;28;102542;-60
2021/09/05 06:43:45;;;;;;;8.37;7.57;;;;;;;16.55;88.81;98947.25;4997763;28;102766;-59
2021/09/05 06:46:13;;;;;;;8.37;7.57;;;;;;;16.57;88.65;98951.44;4990292;28;103331;-66
2021/09/05 06:48:41;;;;;;;10.00;9.00;;;;;;;16.69;87.76;98957.47;4985479;28;103924;-67
2021/09/05 06:51:12;;;;;;;10.23;9.30;;;;;;;16.40;89.31;98948.59;4980342;28;102639;-60
2021/09/05 06:53:41;;;;;;;10.30;9.13;;;;;;;16.61;89.22;98955.53;4999396;28;103810;-59
2021/09/05 06:56:10;;;;;;;9.83;8.93;;;;;;;16.66;88.72;98955.94;5001197;28;103905;-67
2021/09/05 06:58:39;;;;;;;8.43;7.70;;;;;;;16.93;88.38;98951.63;5000760;28;103220;-67
2021/09/05 07:01:07;;;;;;;8.70;7.80;;;;;;;17.11;86.69;98960.59;4997444;28;102525;-60
2021/09/05 07:03:35;;;;;;;7.53;6.80;;;;;;;17.30;85.65;98963.19;4995898;28;103845;-60
2021/09/05 07:06:04;;;;;;;10.38;9.13;;;;;;;17.22;85.00;98963.06;4992983;28;104128;-68
2021/09/05 07:08:33;;;;;;;10.88;9.07;;;;;;;17.25;84.42;98968.13;4997987;28;103231;-60
2021/09/05 07:11:01;;;;;;;10.37;9.30;;;;;;;17.17;83.48;98965.34;4981130;28;102628;-67
2021/09/05 07:13:29;;;;;;;10.15;8.80;;;;;;;17.48;82.58;98969.44;4980547;28;102798;-68
2021/09/05 07:15:57;;;;;;;8.38;7.57;;;;;;;17.78;82.13;98971.84;4999979;28;103306;-67
2021/09/05 07:18:25;;;;;;;10.50;9.05;;;;;;;17.91;81.12;98968.78;4995789;28;103267;-68
2021/09/05 07:20:53;;;;;;;10.90;8.48;;;;;;;18.04;80.08;98968.44;4999857;28;102577;-68
2021/09/05 07:23:21;;;;;;;9.60;8.60;;;;;;;18.05;80.23;98970.13;5000625;28;103380;-69
2021/09/05 07:25:51;;;;;;;9.45;8.45;;;;;;;18.34;80.43;98970.75;4998654;28;103220;-69
2021/09/05 07:28:19;;;;;;;8.40;7.28;;;;;;;18.49;79.73;98979.94;5000697;28;103313;-68
2021/09/05 07:30:47;;;;;;;9.00;8.10;;;;;;;18.64;78.28;98972.22;4999012;28;103023;-69
2021/09/05 07:33:15;;;;;;;9.80;8.80;;;;;;;18.66;77.98;98976.44;4999704;28;102589;-67
2021/09/05 07:35:43;;;;;;;7.18;6.47;;;;;;;19.26;77.59;98966.59;4997573;28;104436;-69
2021/09/05 07:38:11;;;;;;;9.13;8.02;;;;;;;19.54;74.70;98967.28;4995139;28;103215;-68
2021/09/05 07:40:39;;;;;;;8.38;7.57;;;;;;;19.74;74.65;98970.53;4996086;28;102585;-67
2021/09/05 07:43:08;;;;;;;8.88;8.07;;;;;;;19.93;72.54;98979.16;4986251;28;102669;-68
2021/09/05 07:45:36;;;;;;;10.05;8.60;;;;;;;19.85;72.75;98972.94;4959790;28;103373;-68
2021/09/05 07:48:06;;;;;;;9.25;7.10;;;;;;;20.27;71.84;98976.41;4976435;28;103277;-67
2021/09/05 07:50:34;;;;;;;9.15;7.78;;;;;;;20.78;71.25;98977.97;4980656;28;102718;-66
2021/09/05 07:53:02;;;;;;;8.32;6.88;;;;;;;21.20;70.64;98973.22;4974941;28;103454;-60
2021/09/05 07:55:30;;;;;;;8.57;7.78;;;;;;;20.61;71.32;98982.50;4978866;28;103999;-68
2021/09/05 07:57:58;;;;;;;7.72;6.93;;;;;;;21.47;69.31;98981.91;4981678;28;103183;-67
2021/09/05 08:00:27;;;;;;;6.97;5.88;;;;;;;21.69;69.38;98981.16;4977893;28;102776;-69
2021/09/05 08:02:56;;;;;;;7.85;7.15;;;;;;;22.20;65.86;98985.97;4977759;28;104120;-68
2021/09/05 08:05:24;;;;;;;7.97;7.05;;;;;;;22.50;66.38;98993.16;4981204;28;103748;-68
2021/09/05 08:07:52;;;;;;;7.63;6.82;;;;;;;22.57;65.39;98995.16;4981806;28;102985;-70
2021/09/05 08:10:20;;;;;;;6.85;6.20;;;;;;;22.55;64.39;98984.53;4968044;28;102784;-69
2021/09/05 08:12:48;;;;;;;7.25;6.55;;;;;;;22.75;64.90;98990.31;4962304;28;102885;-69
2021/09/05 08:15:17;;;;;;;7.63;6.95;;;;;;;21.98;66.68;98986.75;4978046;28;103283;-69
2021/09/05 08:17:46;;;;;;;6.40;5.80;;;;;;;23.49;62.38;98984.91;4973682;28;103197;-68
2021/09/05 08:20:14;;;;;;;6.68;5.93;;;;;;;23.35;62.15;98993.78;4970181;28;103182;-69
2021/09/05 08:22:45;;;;;;;9.50;6.55;;;;;;;23.25;63.83;98993.19;4975146;28;104241;-69
2021/09/05 08:25:13;;;;;;;8.02;6.78;;;;;;;24.26;61.19;98990.66;4978117;28;104037;-69
2021/09/05 08:27:41;;;;;;;9.55;7.38;;;;;;;24.36;58.06;98984.97;4986602;28;103213;-69
2021/09/05 08:30:10;;;;;;;8.52;7.65;;;;;;;23.28;60.13;98990.13;4981344;28;102864;-60
2021/09/05 08:32:38;;;;;;;6.93;6.22;;;;;;;24.41;58.61;98988.78;4981265;28;104095;-60
2021/09/05 08:35:09;;;;;;;7.80;6.30;;;;;;;24.50;56.97;98990.31;4959995;28;105215;-60
2021/09/05 08:37:37;;;;;;;7.40;6.47;;;;;;;24.29;57.41;98989.44;4977986;28;103259;-60
2021/09/05 08:40:08;;;;;;;7.40;6.63;;;;;;;24.63;56.18;98995.84;4977141;28;104957;-68
2021/09/05 08:42:36;;;;;;;7.57;6.10;;;;;;;25.58;54.54;98990.81;4982694;28;102612;-70
2021/09/05 08:45:06;;;;;;;6.25;5.65;;;;;;;25.89;52.61;98993.06;4982394;28;104759;-69
2021/09/05 08:47:36;;;;;;;7.60;6.53;;;;;;;25.08;55.34;98993.78;4980924;28;103542;-59
2021/09/05 08:50:06;;;;;;;5.65;5.07;;;;;;;25.93;54.98;98989.78;4980106;28;103236;-61
2021/09/05 08:52:37;;;;;;;8.32;6.35;;;;;;;25.59;54.02;98992.50;4960233;28;103308;-60
2021/09/05 08:55:07;;;;;;;5.53;5.03;;;;;;;26.49;55.27;99000.41;4978302;28;103293;-58
2021/09/05 08:57:35;;;;;;;5.75;4.97;;;;;;;26.58;53.55;98993.75;4977404;28;103501;-68
2021/09/05 09:00:04;;;;;;;7.55;6.20;;;;;;;26.87;53.17;98998.81;4979882;28;102818;-58
2021/09/05 09:02:47;;;;;;;6.63;6.03;;;;;;;27.23;50.61;99003.00;4982087;28;102907;-67
2021/09/05 09:05:34;;;;;;;5.40;4.90;;;;;;;27.08;50.11;99005.06;4976705;28;103351;-69
2021/09/05 09:08:08;;;;;;;8.35;6.50;;;;;;;27.25;50.56;98999.03;4978813;28;103320;-68
2021/09/05 09:10:50;;;;;;;6.10;5.50;;;;;;;27.02;49.83;99002.16;4976330;28;102663;-69
2021/09/05 09:13:29;;;;;;;5.45;4.95;;;;;;;26.72;51.05;99008.16;4962866;28;102815;-69
2021/09/05 09:15:58;;;;;;;7.70;6.90;;;;;;;25.71;51.37;99012.53;4979406;28;103329;-68
2021/09/05 09:18:28;;;;;;;7.85;7.07;;;;;;;25.53;52.29;99009.53;4977895;28;103234;-69
2021/09/05 09:20:57;;;;;;;5.90;5.38;;;;;;;26.83;51.99;99013.00;4980759;28;102702;-69
2021/09/05 09:23:28;;;;;;;6.80;6.20;;;;;;;26.68;51.83;99005.00;4985121;28;103248;-69
2021/09/05 09:26:02;;;;;;;7.38;6.60;;;;;;;27.06;49.84;99006.09;4977352;28;103034;-68
2021/09/05 09:28:33;;;;;;;5.75;5.25;;;;;;;27.23;50.03;99008.41;4979665;28;103244;-69
2021/09/05 09:31:04;;;;;;;6.30;5.20;;;;;;;26.88;50.24;99002.34;4973853;28;103604;-69
2021/09/05 09:33:32;;;;;;;5.88;5.28;;;;;;;27.17;51.40;99014.69;4959810;28;103069;-69
2021/09/05 09:36:02;;;;;;;8.68;5.97;;;;;;;27.31;48.71;99008.19;4974322;28;103261;-68
2021/09/05 09:38:33;;;;;;;6.55;5.95;;;;;;;27.54;48.32;99005.88;4984131;28;103449;-70
2021/09/05 09:41:06;;;;;;;5.38;4.97;;;;;;;28.55;47.78;99001.53;4980857;28;102743;-68
2021/09/05 09:43:35;;;;;;;6.07;5.57;;;;;;;27.08;50.06;99005.06;4987484;28;102815;-61
2021/09/05 09:46:13;;;;;;;8.20;5.90;;;;;;;27.04;50.80;99010.91;4996904;28;103252;-60
2021/09/05 09:48:46;;;;;;;6.70;6.20;;;;;;;25.24;51.98;99010.53;4994259;28;103290;-60
2021/09/05 09:51:15;;;;;;;5.93;5.43;;;;;;;26.20;51.33;99003.41;4994569;28;102661;-68
2021/09/05 09:53:45;;;;;;;6.20;5.65;;;;;;;27.34;49.16;99000.44;4971487;28;102815;-69
2021/09/05 09:56:16;;;;;;;7.05;6.10;;;;;;;26.89;49.89;99007.56;4983660;28;104119;-69
2021/09/05 09:58:45;;;;;;;6.57;5.97;;;;;;;27.34;47.84;98997.75;4984510;28;103183;-70
2021/09/05 10:01:18;;;;;;;6.35;5.75;;;;;;;27.54;47.45;98990.44;4986958;28;102687;-69
2021/09/05 10:03:48;;;;;;;5.93;5.30;;;;;;;27.94;49.05;98996.59;4985480;28;102912;-61
2021/09/05 10:06:18;;;;;;;6.38;5.78;;;;;;;26.57;48.68;98999.34;4986688;28;103028;-69
2021/09/05 10:08:47;;;;;;;6.18;5.68;;;;;;;27.40;50.18;98993.34;4985434;28;103185;-69
2021/09/05 10:11:17;;;;;;;29.20;26.15;;;;;;;28.41;47.55;98986.38;4968354;28;103035;-69
2021/09/05 10:13:45;;;;;;;22.10;19.80;;;;;;;28.19;49.02;98978.53;4971675;28;102874;-61
2021/09/05 10:16:13;;;;;;;10.57;9.57;;;;;;;28.45;47.53;98976.72;4986581;28;103984;-71
2021/09/05 10:18:45;;;;;;;7.75;6.68;;;;;;;28.48;47.24;98965.44;4986411;28;103234;-61
2021/09/05 10:21:14;;;;;;;7.28;6.15;;;;;;;28.36;47.06;98978.03;5003429;28;102646;-61
2021/09/05 10:23:49;;;;;;;5.53;5.03;;;;;;;28.83;47.22;98974.81;4986602;28;103143;-62
2021/09/05 10:26:17;;;;;;;5.50;5.10;;;;;;;28.38;47.41;98971.31;4985184;28;103573;-70
2021/09/05 10:28:48;;;;;;;5.20;4.80;;;;;;;28.77;46.59;98970.28;4985669;28;103420;-62
2021/09/05 10:31:25;;;;;;;6.15;5.65;;;;;;;27.91;44.99;98969.03;4986654;28;102807;-61
2021/09/05 10:33:54;;;;;;;5.82;4.63;;;;;;;27.95;48.65;98965.69;4988293;28;102742;-70
2021/09/05 10:36:25;;;;;;;5.75;5.22;;;;;;;28.81;46.63;98966.06;4986615;28;104566;-59
2021/09/05 10:39:05;;;;;;;5.88;5.32;;;;;;;26.65;47.79;98967.47;4991555;28;102987;-60
2021/09/05 10:41:34;;;;;;;4.95;4.45;;;;;;;27.63;46.61;98966.63;4984005;28;103238;-62
2021/09/05 10:44:08;;;;;;;4.65;4.35;;;;;;;27.80;46.25;98956.13;4986208;28;104278;-60
2021/09/05 10:46:46;;;;;;;6.53;5.93;;;;;;;28.32;45.00;98955.09;4983195;28;103264;-60
2021/09/05 10:49:15;;;;;;;5.63;5.13;;;;;;;28.92;44.50;98956.34;4985668;28;103207;-70
2021/09/05 10:51:47;;;;;;;5.45;4.95;;;;;;;28.48;42.86;98954.56;4984769;28;102718;-69
2021/09/05 10:54:23;;;;;;;5.47;4.80;;;;;;;28.71;41.78;98957.56;4992540;28;102953;-60
2021/09/05 10:56:53;;;;;;;5.63;5.00;;;;;;;29.20;41.86;98957.56;4988941;28;103342;-61
2021/09/05 10:59:23;;;;;;;5.80;5.20;;;;;;;26.82;44.94;98963.38;4986203;28;103266;-60
2021/09/05 11:01:59;;;;;;;5.75;5.25;;;;;;;26.85;45.89;98964.81;4986187;28;102727;-70
2021/09/05 11:04:31;;;;;;;5.75;5.25;;;;;;;27.30;47.39;98955.00;4981670;28;103236;-69
2021/09/05 11:07:02;;;;;;;6.32;4.20;;;;;;;28.63;44.62;98963.28;4981189;28;103074;-70
2021/09/05 11:09:44;;;;;;;5.60;4.63;;;;;;;28.90;42.90;98956.56;4982750;28;103218;-70
2021/09/05 11:12:18;;;;;;;8.23;4.97;;;;;;;28.61;42.74;98959.91;4987937;28;104177;-69
2021/09/05 11:15:00;;;;;;;4.90;4.50;;;;;;;28.74;43.61;98954.41;4984216;28;102877;-61
2021/09/05 11:17:31;;;;;;;6.82;4.60;;;;;;;29.01;42.33;98960.44;4988611;28;104393;-71
2021/09/05 11:20:03;;;;;;;4.60;4.20;;;;;;;28.51;41.68;98956.84;4984302;28;103268;-70
2021/09/05 11:22:33;;;;;;;4.68;4.30;;;;;;;29.14;41.53;98955.72;4967729;28;103274;-61
2021/09/05 11:25:14;;;;;;;5.60;4.97;;;;;;;29.40;41.37;98959.28;4988060;28;103363;-71
2021/09/05 11:27:48;;;;;;;4.75;4.35;;;;;;;29.65;41.00;98958.16;4983791;28;103320;-60
2021/09/05 11:30:17;;;;;;;7.68;4.63;;;;;;;28.52;42.57;98951.16;4987345;28;103560;-68
2021/09/05 11:32:47;;;;;;;5.32;4.25;;;;;;;29.40;41.60;98956.56;4983599;28;102830;-61
2021/09/05 11:35:16;;;;;;;5.20;4.68;;;;;;;28.21;42.10;98947.63;4970835;28;104539;-60
2021/09/05 11:37:46;;;;;;;5.05;4.22;;;;;;;27.99;42.74;98955.22;4962949;28;104168;-61
2021/09/05 11:40:20;;;;;;;5.63;4.32;;;;;;;29.02;40.45;98952.09;4957347;28;103234;-61
2021/09/05 11:42:51;;;;;;;4.88;4.50;;;;;;;27.77;43.57;98953.84;4974090;28;102890;-61
2021/09/05 11:45:23;;;;;;;5.20;4.70;;;;;;;27.67;42.98;98951.59;4973991;28;103203;-61
2021/09/05 11:48:00;;;;;;;4.53;4.13;;;;;;;27.02;41.89;98960.66;4955090;28;104156;-61